TAP1711 LPPR-LPMA
Flight info
| Callsign | TAP1711 |
|---|---|
| Flight time | 1h 42m |
| Altitude | 35000 |
| Route | ASMOV DCT DIRMA DCT VABEM DCT LIDRO |
| Aircraft | A320/M-SDE3FGHIRWY/LB1 |
Departure
| Time | 2026-05-07 16:04 |
|---|---|
| Airport | Francisco de Sá Carneiro Airport (LPPR) |
Arrival
| Time | 2026-05-07 17:47 |
|---|---|
| Airport | Cristiano Ronaldo International Airport (LPMA) |
| Time | Latitude | Longitude | Altitude | Speed | Heading |
|---|---|---|---|---|---|
| 2026-05-07 15:39 | 41.23685 | -8.67252 | 237 ft | 0 kts | 78° |
| 2026-05-07 15:59 | 41.23685 | -8.67254 | 237 ft | 1 kts | 78° |
| 2026-05-07 15:59 | 41.23682 | -8.67275 | 237 ft | 3 kts | 82° |
| 2026-05-07 15:59 | 41.23680 | -8.67302 | 237 ft | 3 kts | 90° |
| 2026-05-07 15:59 | 41.23681 | -8.67328 | 237 ft | 3 kts | 109° |
| 2026-05-07 16:00 | 41.23689 | -8.67349 | 237 ft | 2 kts | 150° |
| 2026-05-07 16:00 | 41.23693 | -8.67352 | 237 ft | 0 kts | 160° |
| 2026-05-07 16:02 | 41.23683 | -8.67347 | 237 ft | 6 kts | 160° |
| 2026-05-07 16:02 | 41.23612 | -8.67328 | 237 ft | 15 kts | 180° |
| 2026-05-07 16:02 | 41.23518 | -8.67387 | 237 ft | 15 kts | 200° |
| 2026-05-07 16:02 | 41.23424 | -8.67367 | 237 ft | 13 kts | 166° |
| 2026-05-07 16:03 | 41.23341 | -8.67393 | 237 ft | 15 kts | 235° |
| 2026-05-07 16:03 | 41.23316 | -8.67533 | 237 ft | 16 kts | 260° |
| 2026-05-07 16:03 | 41.23296 | -8.67682 | 238 ft | 16 kts | 260° |
| 2026-05-07 16:03 | 41.23339 | -8.67742 | 239 ft | 11 kts | 351° |
| 2026-05-07 16:04 | 41.23520 | -8.67790 | 235 ft | 58 kts | 349° |
| 2026-05-07 16:04 | 41.24142 | -8.67951 | 219 ft | 121 kts | 348° |
| 2026-05-07 16:04 | 41.25142 | -8.68212 | 210 ft | 167 kts | 346° |
| 2026-05-07 16:04 | 41.26285 | -8.68498 | 843 ft | 166 kts | 346° |
| 2026-05-07 16:05 | 41.27408 | -8.68791 | 1561 ft | 168 kts | 345° |
| 2026-05-07 16:05 | 41.28637 | -8.69122 | 1931 ft | 189 kts | 345° |
| 2026-05-07 16:05 | 41.30009 | -8.69492 | 2245 ft | 214 kts | 345° |
| 2026-05-07 16:05 | 41.31556 | -8.69905 | 2659 ft | 238 kts | 346° |
| 2026-05-07 16:06 | 41.33239 | -8.70351 | 3151 ft | 258 kts | 346° |
| 2026-05-07 16:06 | 41.35033 | -8.70820 | 3925 ft | 267 kts | 346° |
| 2026-05-07 16:06 | 41.36887 | -8.71304 | 4740 ft | 275 kts | 347° |
| 2026-05-07 16:06 | 41.38773 | -8.71878 | 5569 ft | 280 kts | 337° |
| 2026-05-07 16:07 | 41.40409 | -8.73254 | 6349 ft | 282 kts | 311° |
| 2026-05-07 16:07 | 41.41432 | -8.75459 | 7065 ft | 281 kts | 284° |
| 2026-05-07 16:07 | 41.41633 | -8.78015 | 7847 ft | 278 kts | 259° |
| 2026-05-07 16:07 | 41.41275 | -8.80549 | 8671 ft | 280 kts | 255° |
| 2026-05-07 16:08 | 41.40866 | -8.83106 | 9452 ft | 283 kts | 250° |
| 2026-05-07 16:08 | 41.40019 | -8.85461 | 10176 ft | 283 kts | 230° |
| 2026-05-07 16:08 | 41.38596 | -8.87354 | 10521 ft | 299 kts | 218° |
| 2026-05-07 16:08 | 41.36920 | -8.89169 | 10762 ft | 320 kts | 217° |
| 2026-05-07 16:09 | 41.35141 | -8.91022 | 11321 ft | 328 kts | 216° |
| 2026-05-07 16:09 | 41.33324 | -8.92893 | 12003 ft | 332 kts | 216° |
| 2026-05-07 16:09 | 41.31491 | -8.94783 | 12699 ft | 336 kts | 217° |
| 2026-05-07 16:09 | 41.29637 | -8.96705 | 13392 ft | 340 kts | 217° |
| 2026-05-07 16:10 | 41.27763 | -8.98656 | 14019 ft | 344 kts | 217° |
| 2026-05-07 16:10 | 41.25874 | -9.00626 | 14638 ft | 347 kts | 217° |
| 2026-05-07 16:10 | 41.23969 | -9.02616 | 15238 ft | 350 kts | 217° |
| 2026-05-07 16:10 | 41.22045 | -9.04625 | 15846 ft | 353 kts | 217° |
| 2026-05-07 16:11 | 41.20101 | -9.06655 | 16432 ft | 357 kts | 218° |
| 2026-05-07 16:11 | 41.18139 | -9.08701 | 17012 ft | 361 kts | 218° |
| 2026-05-07 16:11 | 41.16155 | -9.10766 | 17591 ft | 364 kts | 218° |
| 2026-05-07 16:11 | 41.14152 | -9.12853 | 18155 ft | 368 kts | 218° |
| 2026-05-07 16:12 | 41.12130 | -9.14957 | 18659 ft | 371 kts | 218° |
| 2026-05-07 16:12 | 41.10091 | -9.17078 | 19181 ft | 374 kts | 218° |
| 2026-05-07 16:12 | 41.08037 | -9.19214 | 19709 ft | 376 kts | 219° |
| 2026-05-07 16:12 | 41.05969 | -9.21360 | 20235 ft | 379 kts | 219° |
| 2026-05-07 16:13 | 41.03886 | -9.23519 | 20753 ft | 381 kts | 219° |
| 2026-05-07 16:13 | 41.01783 | -9.25694 | 21269 ft | 384 kts | 219° |
| 2026-05-07 16:13 | 40.99668 | -9.27879 | 21783 ft | 387 kts | 219° |
| 2026-05-07 16:13 | 40.97536 | -9.30078 | 22284 ft | 390 kts | 219° |
| 2026-05-07 16:14 | 40.95389 | -9.32293 | 22778 ft | 393 kts | 219° |
| 2026-05-07 16:14 | 40.93229 | -9.34520 | 23264 ft | 395 kts | 219° |
| 2026-05-07 16:14 | 40.91049 | -9.36767 | 23699 ft | 398 kts | 219° |
| 2026-05-07 16:14 | 40.88861 | -9.39020 | 23868 ft | 399 kts | 219° |
| 2026-05-07 16:15 | 40.86673 | -9.41272 | 23912 ft | 398 kts | 219° |
| 2026-05-07 16:15 | 40.84487 | -9.43519 | 23915 ft | 397 kts | 219° |
| 2026-05-07 16:15 | 40.82299 | -9.45765 | 24136 ft | 399 kts | 219° |
| 2026-05-07 16:15 | 40.80103 | -9.48023 | 24579 ft | 400 kts | 219° |
| 2026-05-07 16:16 | 40.77902 | -9.50284 | 25001 ft | 401 kts | 219° |
| 2026-05-07 16:16 | 40.75700 | -9.52547 | 25413 ft | 402 kts | 219° |
| 2026-05-07 16:16 | 40.73488 | -9.54818 | 25810 ft | 403 kts | 219° |
| 2026-05-07 16:16 | 40.71271 | -9.57086 | 26199 ft | 404 kts | 219° |
| 2026-05-07 16:17 | 40.69047 | -9.59357 | 26575 ft | 405 kts | 219° |
| 2026-05-07 16:17 | 40.66817 | -9.61635 | 26947 ft | 406 kts | 219° |
| 2026-05-07 16:17 | 40.64548 | -9.63953 | 27318 ft | 408 kts | 219° |
| 2026-05-07 16:17 | 40.62302 | -9.66244 | 27683 ft | 409 kts | 219° |
| 2026-05-07 16:18 | 40.60050 | -9.68537 | 28037 ft | 410 kts | 219° |
| 2026-05-07 16:18 | 40.57788 | -9.70838 | 28381 ft | 412 kts | 219° |
| 2026-05-07 16:18 | 40.55516 | -9.73145 | 28704 ft | 413 kts | 219° |
| 2026-05-07 16:18 | 40.53239 | -9.75452 | 29039 ft | 414 kts | 219° |
| 2026-05-07 16:19 | 40.50952 | -9.77775 | 29341 ft | 416 kts | 220° |
| 2026-05-07 16:19 | 40.48657 | -9.80107 | 29644 ft | 417 kts | 220° |
| 2026-05-07 16:19 | 40.46359 | -9.82441 | 29935 ft | 419 kts | 220° |
| 2026-05-07 16:19 | 40.44046 | -9.84787 | 30189 ft | 420 kts | 220° |
| 2026-05-07 16:20 | 40.41731 | -9.87126 | 30422 ft | 421 kts | 220° |
| 2026-05-07 16:20 | 40.39402 | -9.89474 | 30651 ft | 422 kts | 220° |
| 2026-05-07 16:20 | 40.37071 | -9.91825 | 30879 ft | 423 kts | 220° |
| 2026-05-07 16:20 | 40.34740 | -9.94175 | 31168 ft | 422 kts | 220° |
| 2026-05-07 16:21 | 40.32414 | -9.96517 | 31492 ft | 421 kts | 220° |
| 2026-05-07 16:21 | 40.30096 | -9.98849 | 31818 ft | 419 kts | 220° |
| 2026-05-07 16:21 | 40.27787 | -10.01167 | 32144 ft | 418 kts | 220° |
| 2026-05-07 16:21 | 40.25486 | -10.03477 | 32461 ft | 416 kts | 220° |
| 2026-05-07 16:22 | 40.23191 | -10.05781 | 32779 ft | 415 kts | 220° |
| 2026-05-07 16:22 | 40.20900 | -10.08078 | 33094 ft | 413 kts | 220° |
| 2026-05-07 16:22 | 40.18616 | -10.10364 | 33415 ft | 412 kts | 220° |
| 2026-05-07 16:22 | 40.16339 | -10.12644 | 33731 ft | 411 kts | 220° |
| 2026-05-07 16:23 | 40.14070 | -10.14917 | 34020 ft | 410 kts | 220° |
| 2026-05-07 16:23 | 40.11805 | -10.17185 | 34269 ft | 409 kts | 220° |
| 2026-05-07 16:23 | 40.09545 | -10.19448 | 34506 ft | 409 kts | 220° |
| 2026-05-07 16:23 | 40.07339 | -10.21783 | 34733 ft | 407 kts | 225° |
| 2026-05-07 16:24 | 40.05922 | -10.23403 | 34856 ft | 408 kts | 223° |
| 2026-05-07 16:24 | 40.00651 | -10.28536 | 34932 ft | 404 kts | 219° |
| 2026-05-07 16:25 | 39.96191 | -10.32992 | 34936 ft | 406 kts | 221° |
| 2026-05-07 16:25 | 39.92442 | -10.36865 | 34938 ft | 415 kts | 221° |
| 2026-05-07 16:26 | 39.87834 | -10.41508 | 34932 ft | 422 kts | 220° |
| 2026-05-07 16:26 | 39.83140 | -10.46129 | 34930 ft | 424 kts | 220° |
| 2026-05-07 16:27 | 39.78427 | -10.50741 | 34938 ft | 424 kts | 220° |
| 2026-05-07 16:27 | 39.73717 | -10.55360 | 34937 ft | 424 kts | 220° |
| 2026-05-07 16:28 | 39.69016 | -10.59983 | 34938 ft | 424 kts | 220° |
| 2026-05-07 16:28 | 39.64315 | -10.64612 | 34937 ft | 424 kts | 220° |
| 2026-05-07 16:29 | 39.59613 | -10.69227 | 34937 ft | 424 kts | 220° |
| 2026-05-07 16:29 | 39.54902 | -10.73830 | 34934 ft | 424 kts | 220° |
| 2026-05-07 16:30 | 39.50184 | -10.78436 | 34942 ft | 424 kts | 220° |
| 2026-05-07 16:30 | 39.45474 | -10.83023 | 34939 ft | 424 kts | 220° |
| 2026-05-07 16:31 | 39.40762 | -10.87615 | 34940 ft | 424 kts | 220° |
| 2026-05-07 16:31 | 39.36048 | -10.92207 | 34940 ft | 424 kts | 220° |
| 2026-05-07 16:32 | 39.31334 | -10.96785 | 34941 ft | 424 kts | 220° |
| 2026-05-07 16:32 | 39.26610 | -11.01351 | 34936 ft | 424 kts | 220° |
| 2026-05-07 16:33 | 39.21884 | -11.05920 | 34938 ft | 424 kts | 220° |
| 2026-05-07 16:33 | 39.17159 | -11.10487 | 34933 ft | 425 kts | 220° |
| 2026-05-07 16:34 | 39.12422 | -11.15046 | 34933 ft | 425 kts | 220° |
| 2026-05-07 16:34 | 39.07679 | -11.19603 | 34928 ft | 426 kts | 220° |
| 2026-05-07 16:35 | 39.02893 | -11.24183 | 34932 ft | 426 kts | 220° |
| 2026-05-07 16:35 | 38.98162 | -11.28719 | 34929 ft | 426 kts | 220° |
| 2026-05-07 16:36 | 38.93404 | -11.33279 | 34932 ft | 427 kts | 220° |
| 2026-05-07 16:36 | 38.88633 | -11.37831 | 34929 ft | 428 kts | 220° |
| 2026-05-07 16:37 | 38.83846 | -11.42387 | 34931 ft | 428 kts | 220° |
| 2026-05-07 16:37 | 38.79030 | -11.46974 | 34932 ft | 429 kts | 220° |
| 2026-05-07 16:38 | 38.74243 | -11.51538 | 34931 ft | 429 kts | 220° |
| 2026-05-07 16:38 | 38.69450 | -11.56094 | 34934 ft | 429 kts | 220° |
| 2026-05-07 16:39 | 38.64648 | -11.60643 | 34938 ft | 429 kts | 219° |
| 2026-05-07 16:39 | 38.59836 | -11.65182 | 34937 ft | 430 kts | 219° |
| 2026-05-07 16:40 | 38.55019 | -11.69717 | 34936 ft | 430 kts | 219° |
| 2026-05-07 16:40 | 38.50201 | -11.74257 | 34935 ft | 430 kts | 219° |
| 2026-05-07 16:41 | 38.45375 | -11.78798 | 34935 ft | 431 kts | 219° |
| 2026-05-07 16:41 | 38.40548 | -11.83333 | 34941 ft | 431 kts | 219° |
| 2026-05-07 16:42 | 38.35718 | -11.87867 | 34944 ft | 432 kts | 219° |
| 2026-05-07 16:42 | 38.30870 | -11.92403 | 34934 ft | 432 kts | 219° |
| 2026-05-07 16:43 | 38.26019 | -11.96928 | 34938 ft | 433 kts | 219° |
| 2026-05-07 16:43 | 38.21166 | -12.01461 | 34933 ft | 433 kts | 219° |
| 2026-05-07 16:44 | 38.16297 | -12.05986 | 34934 ft | 434 kts | 219° |
| 2026-05-07 16:44 | 38.11417 | -12.10513 | 34934 ft | 434 kts | 219° |
| 2026-05-07 16:45 | 38.06533 | -12.15046 | 34938 ft | 435 kts | 219° |
| 2026-05-07 16:45 | 38.01638 | -12.19579 | 34926 ft | 436 kts | 219° |
| 2026-05-07 16:46 | 37.96740 | -12.24113 | 34930 ft | 436 kts | 219° |
| 2026-05-07 16:46 | 37.91832 | -12.28640 | 34935 ft | 437 kts | 219° |
| 2026-05-07 16:47 | 37.86913 | -12.33166 | 34931 ft | 437 kts | 220° |
| 2026-05-07 16:47 | 37.81959 | -12.37731 | 34938 ft | 438 kts | 220° |
| 2026-05-07 16:48 | 37.77060 | -12.42233 | 34937 ft | 438 kts | 220° |
| 2026-05-07 16:48 | 37.72091 | -12.46797 | 34935 ft | 439 kts | 220° |
| 2026-05-07 16:49 | 37.67145 | -12.51329 | 34935 ft | 440 kts | 220° |
| 2026-05-07 16:49 | 37.62183 | -12.55855 | 34932 ft | 440 kts | 219° |
| 2026-05-07 16:50 | 37.57216 | -12.60379 | 34933 ft | 441 kts | 220° |
| 2026-05-07 16:50 | 37.52243 | -12.64914 | 34933 ft | 441 kts | 220° |
| 2026-05-07 16:51 | 37.47255 | -12.69445 | 34939 ft | 442 kts | 220° |
| 2026-05-07 16:51 | 37.42263 | -12.73971 | 34935 ft | 443 kts | 220° |
| 2026-05-07 16:52 | 37.37261 | -12.78501 | 34934 ft | 443 kts | 220° |
| 2026-05-07 16:52 | 37.32251 | -12.83042 | 34934 ft | 444 kts | 220° |
| 2026-05-07 16:53 | 37.27235 | -12.87583 | 34937 ft | 445 kts | 220° |
| 2026-05-07 16:53 | 37.22207 | -12.92117 | 34938 ft | 446 kts | 220° |
| 2026-05-07 16:54 | 37.17159 | -12.96651 | 34933 ft | 446 kts | 220° |
| 2026-05-07 16:54 | 37.12101 | -13.01180 | 34933 ft | 447 kts | 220° |
| 2026-05-07 16:55 | 37.07040 | -13.05728 | 34932 ft | 448 kts | 220° |
| 2026-05-07 16:55 | 37.01973 | -13.10278 | 34934 ft | 449 kts | 220° |
| 2026-05-07 16:56 | 36.96886 | -13.14818 | 34935 ft | 450 kts | 220° |
| 2026-05-07 16:56 | 36.90063 | -13.20910 | 34938 ft | 451 kts | 220° |
| 2026-05-07 16:57 | 36.84954 | -13.25462 | 34934 ft | 452 kts | 220° |
| 2026-05-07 16:57 | 36.79826 | -13.30021 | 34933 ft | 453 kts | 220° |
| 2026-05-07 16:58 | 36.74687 | -13.34580 | 34933 ft | 454 kts | 220° |
| 2026-05-07 16:58 | 36.69539 | -13.39143 | 34935 ft | 455 kts | 220° |
| 2026-05-07 16:59 | 36.64372 | -13.43715 | 34935 ft | 456 kts | 220° |
| 2026-05-07 16:59 | 36.59191 | -13.48292 | 34936 ft | 457 kts | 220° |
| 2026-05-07 17:00 | 36.53988 | -13.52880 | 34936 ft | 458 kts | 220° |
| 2026-05-07 17:00 | 36.48781 | -13.57463 | 34936 ft | 459 kts | 220° |
| 2026-05-07 17:01 | 36.43560 | -13.62053 | 34939 ft | 460 kts | 221° |
| 2026-05-07 17:01 | 36.38327 | -13.66638 | 34945 ft | 461 kts | 221° |
| 2026-05-07 17:02 | 36.33085 | -13.71231 | 34952 ft | 462 kts | 220° |
| 2026-05-07 17:02 | 36.27831 | -13.75820 | 34937 ft | 462 kts | 220° |
| 2026-05-07 17:03 | 36.22538 | -13.80441 | 34947 ft | 462 kts | 220° |
| 2026-05-07 17:03 | 36.17310 | -13.84995 | 34947 ft | 462 kts | 220° |
| 2026-05-07 17:04 | 36.12011 | -13.89594 | 34950 ft | 462 kts | 220° |
| 2026-05-07 17:04 | 36.06746 | -13.94167 | 34953 ft | 462 kts | 220° |
| 2026-05-07 17:05 | 36.01485 | -13.98737 | 34954 ft | 462 kts | 220° |
| 2026-05-07 17:05 | 35.96221 | -14.03289 | 34959 ft | 462 kts | 220° |
| 2026-05-07 17:06 | 35.90956 | -14.07841 | 34958 ft | 462 kts | 220° |
| 2026-05-07 17:06 | 35.85694 | -14.12383 | 34961 ft | 461 kts | 220° |
| 2026-05-07 17:07 | 35.80435 | -14.16913 | 34966 ft | 461 kts | 220° |
| 2026-05-07 17:07 | 35.75177 | -14.21433 | 34959 ft | 461 kts | 220° |
| 2026-05-07 17:08 | 35.69921 | -14.25945 | 34964 ft | 461 kts | 220° |
| 2026-05-07 17:08 | 35.64663 | -14.30453 | 34960 ft | 460 kts | 220° |
| 2026-05-07 17:09 | 35.59405 | -14.34948 | 34961 ft | 460 kts | 220° |
| 2026-05-07 17:09 | 35.54151 | -14.39433 | 34959 ft | 460 kts | 220° |
| 2026-05-07 17:10 | 35.48895 | -14.43918 | 34964 ft | 460 kts | 220° |
| 2026-05-07 17:10 | 35.43647 | -14.48389 | 34956 ft | 460 kts | 220° |
| 2026-05-07 17:11 | 35.38398 | -14.52854 | 34965 ft | 459 kts | 220° |
| 2026-05-07 17:11 | 35.33144 | -14.57310 | 34962 ft | 459 kts | 219° |
| 2026-05-07 17:12 | 35.27889 | -14.61761 | 34963 ft | 459 kts | 219° |
| 2026-05-07 17:12 | 35.22606 | -14.66235 | 34960 ft | 459 kts | 219° |
| 2026-05-07 17:13 | 35.17351 | -14.70668 | 34965 ft | 459 kts | 219° |
| 2026-05-07 17:13 | 35.12096 | -14.75089 | 34959 ft | 459 kts | 219° |
| 2026-05-07 17:14 | 35.06840 | -14.79504 | 34961 ft | 458 kts | 219° |
| 2026-05-07 17:14 | 35.01593 | -14.83924 | 34961 ft | 459 kts | 219° |
| 2026-05-07 17:15 | 34.96336 | -14.88340 | 34961 ft | 459 kts | 219° |
| 2026-05-07 17:15 | 34.91074 | -14.92747 | 34957 ft | 459 kts | 219° |
| 2026-05-07 17:16 | 34.85814 | -14.97153 | 34964 ft | 459 kts | 219° |
| 2026-05-07 17:16 | 34.80546 | -15.01564 | 34968 ft | 459 kts | 219° |
| 2026-05-07 17:17 | 34.75274 | -15.05956 | 34966 ft | 459 kts | 219° |
| 2026-05-07 17:17 | 34.70002 | -15.10346 | 34971 ft | 459 kts | 219° |
| 2026-05-07 17:18 | 34.64729 | -15.14727 | 34971 ft | 459 kts | 219° |
| 2026-05-07 17:18 | 34.59448 | -15.19094 | 34973 ft | 459 kts | 219° |
| 2026-05-07 17:19 | 34.54178 | -15.23459 | 34981 ft | 458 kts | 219° |
| 2026-05-07 17:19 | 34.48922 | -15.27826 | 34980 ft | 458 kts | 219° |
| 2026-05-07 17:20 | 34.43656 | -15.32175 | 34984 ft | 458 kts | 219° |
| 2026-05-07 17:20 | 34.38390 | -15.36510 | 34979 ft | 458 kts | 219° |
| 2026-05-07 17:21 | 34.33125 | -15.40846 | 34979 ft | 457 kts | 219° |
| 2026-05-07 17:21 | 34.27858 | -15.45176 | 34940 ft | 458 kts | 219° |
| 2026-05-07 17:22 | 34.25226 | -15.47340 | 34595 ft | 456 kts | 219° |
| 2026-05-07 17:22 | 34.22600 | -15.49500 | 34287 ft | 457 kts | 218° |
| 2026-05-07 17:22 | 34.19974 | -15.51662 | 33675 ft | 457 kts | 218° |
| 2026-05-07 17:22 | 34.17349 | -15.53825 | 33120 ft | 458 kts | 218° |
| 2026-05-07 17:23 | 34.14712 | -15.55996 | 32545 ft | 459 kts | 218° |
| 2026-05-07 17:23 | 34.12061 | -15.58168 | 31986 ft | 461 kts | 218° |
| 2026-05-07 17:23 | 34.09392 | -15.60346 | 31419 ft | 464 kts | 218° |
| 2026-05-07 17:23 | 34.06710 | -15.62535 | 30859 ft | 466 kts | 218° |
| 2026-05-07 17:24 | 34.04014 | -15.64734 | 30283 ft | 468 kts | 218° |
| 2026-05-07 17:24 | 34.01344 | -15.66909 | 29834 ft | 457 kts | 219° |
| 2026-05-07 17:24 | 33.98748 | -15.69013 | 29651 ft | 442 kts | 219° |
| 2026-05-07 17:24 | 33.96228 | -15.71053 | 29207 ft | 433 kts | 219° |
| 2026-05-07 17:25 | 33.93745 | -15.73070 | 28669 ft | 428 kts | 219° |
| 2026-05-07 17:25 | 33.91299 | -15.75061 | 27905 ft | 420 kts | 219° |
| 2026-05-07 17:25 | 33.88904 | -15.77011 | 27256 ft | 407 kts | 219° |
| 2026-05-07 17:25 | 33.86616 | -15.78865 | 26983 ft | 387 kts | 219° |
| 2026-05-07 17:26 | 33.84415 | -15.80648 | 26398 ft | 378 kts | 219° |
| 2026-05-07 17:26 | 33.82245 | -15.82408 | 25897 ft | 375 kts | 219° |
| 2026-05-07 17:26 | 33.80083 | -15.84171 | 25468 ft | 375 kts | 219° |
| 2026-05-07 17:26 | 33.77927 | -15.85927 | 25027 ft | 373 kts | 219° |
| 2026-05-07 17:27 | 33.75775 | -15.87676 | 24572 ft | 372 kts | 219° |
| 2026-05-07 17:27 | 33.73634 | -15.89411 | 24114 ft | 371 kts | 219° |
| 2026-05-07 17:27 | 33.71496 | -15.91140 | 23652 ft | 370 kts | 219° |
| 2026-05-07 17:27 | 33.69362 | -15.92859 | 23134 ft | 367 kts | 219° |
| 2026-05-07 17:28 | 33.67254 | -15.94552 | 22631 ft | 361 kts | 219° |
| 2026-05-07 17:28 | 33.65170 | -15.96212 | 22152 ft | 357 kts | 218° |
| 2026-05-07 17:28 | 33.63095 | -15.97820 | 21682 ft | 353 kts | 218° |
| 2026-05-07 17:28 | 33.61028 | -15.99397 | 21206 ft | 350 kts | 218° |
| 2026-05-07 17:29 | 33.58979 | -16.00952 | 20756 ft | 347 kts | 218° |
| 2026-05-07 17:29 | 33.56946 | -16.02500 | 20299 ft | 346 kts | 218° |
| 2026-05-07 17:29 | 33.54918 | -16.04048 | 19844 ft | 346 kts | 218° |
| 2026-05-07 17:29 | 33.52898 | -16.05590 | 19536 ft | 341 kts | 218° |
| 2026-05-07 17:30 | 33.50914 | -16.07102 | 19265 ft | 335 kts | 218° |
| 2026-05-07 17:30 | 33.49590 | -16.08113 | 19044 ft | 333 kts | 218° |
| 2026-05-07 17:30 | 33.47646 | -16.09602 | 18700 ft | 330 kts | 218° |
| 2026-05-07 17:30 | 33.45710 | -16.11086 | 18056 ft | 333 kts | 218° |
| 2026-05-07 17:31 | 33.43758 | -16.12580 | 17581 ft | 329 kts | 218° |
| 2026-05-07 17:31 | 33.41855 | -16.14029 | 17096 ft | 321 kts | 218° |
| 2026-05-07 17:31 | 33.39984 | -16.15454 | 16524 ft | 318 kts | 218° |
| 2026-05-07 17:31 | 33.38120 | -16.16873 | 16093 ft | 316 kts | 218° |
| 2026-05-07 17:32 | 33.36267 | -16.18284 | 15696 ft | 315 kts | 218° |
| 2026-05-07 17:32 | 33.34426 | -16.19687 | 15296 ft | 313 kts | 218° |
| 2026-05-07 17:32 | 33.32598 | -16.21079 | 14903 ft | 311 kts | 218° |
| 2026-05-07 17:32 | 33.30779 | -16.22466 | 14510 ft | 309 kts | 217° |
| 2026-05-07 17:33 | 33.28971 | -16.23846 | 14120 ft | 307 kts | 217° |
| 2026-05-07 17:33 | 33.27299 | -16.25388 | 13709 ft | 298 kts | 234° |
| 2026-05-07 17:33 | 33.26327 | -16.27490 | 13256 ft | 285 kts | 259° |
| 2026-05-07 17:33 | 33.26003 | -16.29786 | 12952 ft | 276 kts | 266° |
| 2026-05-07 17:34 | 33.25791 | -16.32032 | 12694 ft | 268 kts | 266° |
| 2026-05-07 17:34 | 33.25593 | -16.34215 | 12433 ft | 260 kts | 266° |
| 2026-05-07 17:34 | 33.25401 | -16.36336 | 12174 ft | 254 kts | 266° |
| 2026-05-07 17:34 | 33.25214 | -16.38408 | 11920 ft | 248 kts | 266° |
| 2026-05-07 17:35 | 33.25033 | -16.40422 | 11665 ft | 245 kts | 266° |
| 2026-05-07 17:35 | 33.24850 | -16.42445 | 11423 ft | 244 kts | 266° |
| 2026-05-07 17:35 | 33.24670 | -16.44459 | 11174 ft | 243 kts | 266° |
| 2026-05-07 17:35 | 33.24494 | -16.46461 | 10926 ft | 242 kts | 266° |
| 2026-05-07 17:36 | 33.24319 | -16.48463 | 10686 ft | 242 kts | 266° |
| 2026-05-07 17:36 | 33.23955 | -16.50420 | 10445 ft | 244 kts | 248° |
| 2026-05-07 17:36 | 33.22915 | -16.52034 | 10204 ft | 251 kts | 221° |
| 2026-05-07 17:36 | 33.21312 | -16.52904 | 9959 ft | 259 kts | 194° |
| 2026-05-07 17:37 | 33.19523 | -16.53232 | 9714 ft | 260 kts | 192° |
| 2026-05-07 17:37 | 33.17735 | -16.53537 | 9446 ft | 259 kts | 192° |
| 2026-05-07 17:37 | 33.15947 | -16.53840 | 9181 ft | 258 kts | 192° |
| 2026-05-07 17:37 | 33.14173 | -16.54144 | 8920 ft | 257 kts | 192° |
| 2026-05-07 17:38 | 33.12410 | -16.54447 | 8663 ft | 255 kts | 192° |
| 2026-05-07 17:38 | 33.10656 | -16.54749 | 8405 ft | 254 kts | 192° |
| 2026-05-07 17:38 | 33.08912 | -16.55050 | 8163 ft | 253 kts | 192° |
| 2026-05-07 17:38 | 33.07175 | -16.55351 | 7840 ft | 251 kts | 192° |
| 2026-05-07 17:39 | 33.05451 | -16.55649 | 7488 ft | 250 kts | 192° |
| 2026-05-07 17:39 | 33.03733 | -16.55949 | 7135 ft | 249 kts | 192° |
| 2026-05-07 17:39 | 33.02019 | -16.56248 | 6802 ft | 247 kts | 192° |
| 2026-05-07 17:39 | 33.00369 | -16.56533 | 6642 ft | 238 kts | 192° |
| 2026-05-07 17:40 | 32.98723 | -16.56819 | 6399 ft | 233 kts | 192° |
| 2026-05-07 17:40 | 32.97150 | -16.57092 | 6138 ft | 229 kts | 192° |
| 2026-05-07 17:40 | 32.95590 | -16.57360 | 5882 ft | 224 kts | 192° |
| 2026-05-07 17:40 | 32.94039 | -16.57630 | 5459 ft | 227 kts | 191° |
| 2026-05-07 17:41 | 32.92456 | -16.57906 | 5001 ft | 231 kts | 191° |
| 2026-05-07 17:41 | 32.90869 | -16.58182 | 4542 ft | 229 kts | 191° |
| 2026-05-07 17:41 | 32.89279 | -16.58456 | 4091 ft | 233 kts | 191° |
| 2026-05-07 17:41 | 32.87654 | -16.58738 | 3626 ft | 238 kts | 191° |
| 2026-05-07 17:42 | 32.86040 | -16.59122 | 3369 ft | 231 kts | 202° |
| 2026-05-07 17:42 | 32.84656 | -16.59975 | 3230 ft | 218 kts | 219° |
| 2026-05-07 17:42 | 32.83538 | -16.61136 | 3120 ft | 209 kts | 224° |
| 2026-05-07 17:42 | 32.82496 | -16.62251 | 3019 ft | 199 kts | 224° |
| 2026-05-07 17:43 | 32.81467 | -16.63346 | 2999 ft | 196 kts | 224° |
| 2026-05-07 17:43 | 32.80449 | -16.64428 | 2873 ft | 195 kts | 224° |
| 2026-05-07 17:43 | 32.79437 | -16.65507 | 2615 ft | 194 kts | 224° |
| 2026-05-07 17:43 | 32.78461 | -16.66545 | 2398 ft | 183 kts | 224° |
| 2026-05-07 17:44 | 32.77546 | -16.67519 | 2143 ft | 171 kts | 224° |
| 2026-05-07 17:44 | 32.76682 | -16.68438 | 1881 ft | 162 kts | 224° |
| 2026-05-07 17:44 | 32.75857 | -16.69317 | 1617 ft | 156 kts | 225° |
| 2026-05-07 17:44 | 32.75107 | -16.70147 | 1566 ft | 142 kts | 229° |
| 2026-05-07 17:45 | 32.74482 | -16.71035 | 1443 ft | 138 kts | 233° |
| 2026-05-07 17:45 | 32.73909 | -16.71943 | 1257 ft | 136 kts | 236° |
| 2026-05-07 17:45 | 32.73391 | -16.72877 | 1081 ft | 135 kts | 237° |
| 2026-05-07 17:45 | 32.72874 | -16.73798 | 914 ft | 133 kts | 232° |
| 2026-05-07 17:46 | 32.72250 | -16.74583 | 722 ft | 129 kts | 222° |
| 2026-05-07 17:46 | 32.71594 | -16.75310 | 552 ft | 128 kts | 224° |
| 2026-05-07 17:46 | 32.70967 | -16.76062 | 361 ft | 128 kts | 225° |
| 2026-05-07 17:46 | 32.70338 | -16.76798 | 212 ft | 126 kts | 223° |
| 2026-05-07 17:47 | 32.69771 | -16.77463 | 176 ft | 98 kts | 226° |
| 2026-05-07 17:47 | 32.69418 | -16.77877 | 164 ft | 40 kts | 224° |
| 2026-05-07 17:47 | 32.69317 | -16.77962 | 162 ft | 12 kts | 172° |
| 2026-05-07 17:47 | 32.69289 | -16.77903 | 165 ft | 3 kts | 88° |
| 2026-05-07 17:48 | 32.69289 | -16.77897 | 166 ft | 0 kts | 88° |
| 2026-05-07 17:48 | 32.69294 | -16.77859 | 168 ft | 7 kts | 73° |
| 2026-05-07 17:48 | 32.69325 | -16.77811 | 168 ft | 11 kts | 47° |
| 2026-05-07 17:48 | 32.69385 | -16.77736 | 167 ft | 13 kts | 45° |
| 2026-05-07 17:49 | 32.69402 | -16.77708 | 169 ft | 2 kts | 77° |
| 2026-05-07 17:49 | 32.69381 | -16.77685 | 169 ft | 6 kts | 141° |
| 2026-05-07 17:49 | 32.69368 | -16.77671 | 171 ft | 0 kts | 137° |
| 2026-05-07 17:49 | 32.69364 | -16.77667 | 172 ft | 1 kts | 138° |
| 2026-05-07 17:50 | 32.69361 | -16.77663 | 173 ft | 2 kts | 138° |
| 2026-05-07 17:50 | 32.69360 | -16.77662 | 173 ft | 0 kts | 138° |